createdAt,value
2019-02-04T00:02:59.942Z,20.70
2019-02-04T00:08:21.538Z,25.80
2019-02-04T00:10:49.941Z,24.73
2019-02-04T00:13:18.370Z,19.63
2019-02-04T00:16:06.055Z,20.10
2019-02-04T00:18:34.449Z,17.13
2019-02-04T00:21:04.643Z,20.33
2019-02-04T00:23:33.069Z,19.37
2019-02-04T00:26:13.537Z,19.10
2019-02-04T00:28:41.966Z,15.73
2019-02-04T00:31:29.696Z,18.43
2019-02-04T00:36:32.637Z,20.00
2019-02-04T00:39:02.547Z,18.97
2019-02-04T00:41:31.228Z,20.33
2019-02-04T00:43:59.624Z,20.43
2019-02-04T00:49:02.056Z,20.13
2019-02-04T00:51:49.682Z,18.10
2019-02-04T00:54:18.257Z,18.50
2019-02-04T00:56:49.176Z,18.17
2019-02-04T00:59:17.678Z,19.87
2019-02-04T01:02:05.421Z,19.20
2019-02-04T01:12:22.079Z,18.53
2019-02-04T01:17:47.080Z,20.50
2019-02-04T01:20:36.859Z,16.80
2019-02-04T01:23:24.485Z,17.77
2019-02-04T01:26:32.799Z,15.47
2019-02-04T01:29:01.245Z,18.73
2019-02-04T01:31:29.655Z,15.33
2019-02-04T01:33:58.045Z,17.40
2019-02-04T01:36:26.511Z,17.73
2019-02-04T01:38:56.634Z,18.17
2019-02-04T01:41:25.033Z,17.73
2019-02-04T01:51:41.689Z,20.23
2019-02-04T01:54:10.091Z,20.40
2019-02-04T01:56:57.709Z,17.67
2019-02-04T01:59:26.113Z,16.70
2019-02-04T02:01:54.511Z,20.03
2019-02-04T02:06:57.182Z,18.60
2019-02-04T02:11:59.217Z,18.03
2019-02-04T02:14:27.645Z,19.00
2019-02-04T02:17:35.959Z,18.07
2019-02-04T02:20:46.044Z,15.43
2019-02-04T02:23:14.437Z,20.13
2019-02-04T02:25:42.869Z,17.73
2019-02-04T02:30:44.901Z,16.97
2019-02-04T02:33:32.727Z,18.33
2019-02-04T02:36:01.136Z,15.60
2019-02-04T02:38:29.534Z,16.80
2019-02-04T02:40:57.962Z,17.83
2019-02-04T02:43:26.366Z,23.60
2019-02-04T02:45:54.768Z,17.10
2019-02-04T02:48:42.454Z,16.10
2019-02-04T02:51:10.848Z,17.57
2019-02-04T02:53:39.257Z,17.00
2019-02-04T02:56:07.695Z,19.10
2019-02-04T02:58:36.107Z,18.50
2019-02-04T03:01:44.450Z,18.47
2019-02-04T03:09:55.226Z,15.73
2019-02-04T03:12:23.668Z,17.67
2019-02-04T03:14:52.070Z,16.23
2019-02-04T03:17:22.201Z,19.83
2019-02-04T03:19:50.642Z,19.43
2019-02-04T03:22:19.043Z,18.70
2019-02-04T03:24:47.444Z,17.37
2019-02-04T03:29:50.221Z,18.17
2019-02-04T03:32:33.089Z,17.73
2019-02-04T03:35:01.519Z,18.13
2019-02-04T03:37:29.920Z,20.90
2019-02-04T03:39:58.338Z,19.17
2019-02-04T03:42:26.768Z,17.77
2019-02-04T03:44:56.995Z,23.20
2019-02-04T03:50:02.953Z,19.60
2019-02-04T03:55:45.132Z,21.57
2019-02-04T04:00:47.957Z,24.73
2019-02-04T04:03:16.376Z,20.73
2019-02-04T04:05:44.765Z,21.13
2019-02-04T04:08:32.435Z,24.03
2019-02-04T04:11:00.839Z,24.80
2019-02-04T04:13:29.313Z,21.07
2019-02-04T04:18:32.210Z,27.50
2019-02-04T04:21:00.648Z,30.70
2019-02-04T04:23:29.042Z,22.97
2019-02-04T04:25:57.446Z,35.03
2019-02-04T04:28:45.070Z,34.20
2019-02-04T04:31:13.470Z,33.17
2019-02-04T04:33:53.644Z,31.57
2019-02-04T04:36:22.320Z,29.33
2019-02-04T04:38:50.720Z,31.63
2019-02-04T04:43:53.556Z,24.73
2019-02-04T04:46:21.981Z,26.30
2019-02-04T04:48:50.378Z,21.97
2019-02-04T04:51:18.773Z,22.07
2019-02-04T04:53:47.230Z,24.70
2019-02-04T04:56:15.584Z,26.23
2019-02-04T04:58:43.984Z,22.27
2019-02-04T05:01:12.429Z,22.07
2019-02-04T05:03:40.822Z,24.23
2019-02-04T05:06:30.179Z,27.03
2019-02-04T05:08:58.568Z,27.17
2019-02-04T05:11:26.968Z,21.00
2019-02-04T05:13:55.426Z,24.70
2019-02-04T05:16:23.820Z,28.77
2019-02-04T05:24:15.535Z,22.67
2019-02-04T05:26:45.686Z,17.10
2019-02-04T05:29:14.087Z,22.50
2019-02-04T05:31:42.494Z,26.70
2019-02-04T05:36:45.344Z,33.43
2019-02-04T05:41:47.442Z,34.13
2019-02-04T05:44:15.870Z,28.23
2019-02-04T05:46:44.277Z,29.10
2019-02-04T05:49:12.727Z,30.63
2019-02-04T05:51:41.180Z,43.50
2019-02-04T05:54:09.564Z,34.03
2019-02-04T05:56:37.962Z,33.23
2019-02-04T06:02:00.864Z,29.47
2019-02-04T06:04:29.264Z,27.37
2019-02-04T06:06:57.662Z,28.67
2019-02-04T06:09:26.096Z,34.67
2019-02-04T06:11:54.492Z,33.37
2019-02-04T06:14:22.890Z,31.27
2019-02-04T06:16:51.371Z,33.77
2019-02-04T06:19:19.772Z,31.10
2019-02-04T06:22:07.408Z,27.97
2019-02-04T06:24:35.819Z,25.70
2019-02-04T06:27:04.213Z,29.90
2019-02-04T06:32:06.316Z,31.90
2019-02-04T06:34:34.757Z,29.43
2019-02-04T06:37:03.156Z,29.77
2019-02-04T06:39:31.554Z,24.63
2019-02-04T06:41:59.984Z,31.43
2019-02-04T06:44:28.386Z,28.33
2019-02-04T06:46:58.513Z,30.43
2019-02-04T06:52:01.228Z,32.17
2019-02-04T06:57:03.612Z,52.40
2019-02-04T06:59:33.774Z,49.27
2019-02-04T07:02:21.369Z,47.90
2019-02-04T07:04:50.014Z,33.47
2019-02-04T07:07:18.420Z,36.53
2019-02-04T07:09:46.817Z,35.00
2019-02-04T07:14:50.597Z,45.83
2019-02-04T07:17:18.987Z,43.87
2019-02-04T07:19:47.429Z,39.67
2019-02-04T07:22:15.815Z,37.67
2019-02-04T07:24:44.212Z,35.17
2019-02-04T07:27:12.635Z,32.90
2019-02-04T07:29:41.043Z,36.07
2019-02-04T07:32:28.820Z,32.90
2019-02-04T07:38:45.356Z,30.93
2019-02-04T07:41:25.820Z,36.30
2019-02-04T07:43:54.245Z,41.27
2019-02-04T07:46:41.972Z,37.97
2019-02-04T07:49:10.396Z,34.90
2019-02-04T07:51:38.792Z,48.23
2019-02-04T07:54:07.196Z,36.87
2019-02-04T07:56:35.668Z,39.10
2019-02-04T07:59:23.297Z,40.37
2019-02-04T08:01:51.734Z,36.87
2019-02-04T08:04:20.133Z,44.53
2019-02-04T08:06:48.544Z,40.77
2019-02-04T08:09:16.974Z,40.00
2019-02-04T08:11:45.384Z,33.93
2019-02-04T08:19:46.863Z,32.00
2019-02-04T08:22:08.386Z,47.87
2019-02-04T08:24:36.797Z,37.53
2019-02-04T08:27:24.572Z,39.03
2019-02-04T08:29:52.968Z,33.13
2019-02-04T08:32:21.378Z,35.27
2019-02-04T08:34:51.511Z,43.63
2019-02-04T08:37:19.915Z,43.40
2019-02-04T08:39:48.318Z,39.00
2019-02-04T08:42:16.819Z,36.30
2019-02-04T08:45:04.488Z,34.57
2019-02-04T08:50:48.085Z,29.90
2019-02-04T08:55:50.533Z,36.27
2019-02-04T09:00:52.563Z,30.97
2019-02-04T09:03:20.980Z,32.23
2019-02-04T09:06:09.135Z,28.57
2019-02-04T09:08:37.536Z,30.57
2019-02-04T09:11:45.890Z,26.53
2019-02-04T09:17:41.888Z,26.47
2019-02-04T09:20:50.207Z,27.57
2019-02-04T09:23:18.636Z,23.50
2019-02-04T09:25:47.028Z,24.90
2019-02-04T09:28:34.979Z,25.03
2019-02-04T09:31:03.453Z,22.20
2019-02-04T09:33:51.222Z,23.60
2019-02-04T09:36:19.624Z,25.10
2019-02-04T09:38:48.028Z,24.00
2019-02-04T09:41:16.472Z,24.93
2019-02-04T09:49:08.397Z,22.13
2019-02-04T09:51:36.840Z,26.33
2019-02-04T09:54:45.148Z,23.53
2019-02-04T09:57:32.896Z,23.20
2019-02-04T10:00:03.021Z,25.73
2019-02-04T10:02:31.434Z,26.03
2019-02-04T10:07:33.805Z,22.87
2019-02-04T10:12:36.840Z,20.63
2019-02-04T10:15:45.953Z,19.97
2019-02-04T10:18:15.344Z,19.40
2019-02-04T10:21:03.142Z,22.10
2019-02-04T10:23:31.571Z,18.93
2019-02-04T10:26:00.031Z,18.77
2019-02-04T10:28:47.698Z,18.27
2019-02-04T10:31:35.399Z,15.33
2019-02-04T10:36:58.827Z,16.37
2019-02-04T10:39:27.268Z,18.40
2019-02-04T10:41:55.662Z,15.83
2019-02-04T10:44:24.127Z,14.57
2019-02-04T10:47:04.997Z,15.90
2019-02-04T10:49:52.623Z,13.80
2019-02-04T10:52:20.994Z,15.37
2019-02-04T10:54:49.391Z,15.37
2019-02-04T10:59:54.223Z,14.53
2019-02-04T11:02:22.727Z,10.73
2019-02-04T11:04:51.203Z,14.17
2019-02-04T11:07:19.565Z,13.30
2019-02-04T11:09:48.037Z,15.93
2019-02-04T11:12:18.166Z,12.97
2019-02-04T11:14:46.654Z,13.93
2019-02-04T11:17:34.398Z,12.87
2019-02-04T11:20:33.791Z,13.90
2019-02-04T11:25:26.320Z,13.03
2019-02-04T11:28:34.961Z,15.27
2019-02-04T11:31:22.698Z,15.90
2019-02-04T11:36:24.792Z,17.97
2019-02-04T11:38:53.166Z,13.63
2019-02-04T11:41:21.655Z,16.63
2019-02-04T11:43:50.055Z,14.10
2019-02-04T11:46:37.834Z,16.70
2019-02-04T11:49:18.121Z,15.17
2019-02-04T11:51:46.547Z,22.87
2019-02-04T11:54:14.998Z,17.07
2019-02-04T11:56:43.357Z,20.67
2019-02-04T11:59:13.514Z,17.10
2019-02-04T12:01:41.914Z,15.87
2019-02-04T12:04:29.537Z,17.93
2019-02-04T12:06:57.939Z,16.20
2019-02-04T12:09:26.347Z,18.67
2019-02-04T12:11:56.507Z,19.53
2019-02-04T12:14:24.911Z,16.90
2019-02-04T12:17:12.537Z,15.80
2019-02-04T12:19:40.940Z,15.73
2019-02-04T12:22:11.053Z,14.17
2019-02-04T12:24:39.497Z,14.60
2019-02-04T12:27:32.055Z,14.20
2019-02-04T12:29:57.381Z,12.17
2019-02-04T12:32:25.788Z,14.37
2019-02-04T12:34:54.181Z,14.87
2019-02-04T12:37:41.911Z,15.07
2019-02-04T12:40:50.245Z,11.63
2019-02-04T12:43:21.160Z,12.03
2019-02-04T12:45:48.861Z,12.33
2019-02-04T12:48:36.689Z,12.33
2019-02-04T12:51:17.249Z,14.03
2019-02-04T12:53:45.716Z,17.17
2019-02-04T12:56:14.105Z,25.73
2019-02-04T12:58:42.509Z,17.97
2019-02-04T13:03:46.361Z,16.27
2019-02-04T13:09:07.785Z,12.83
2019-02-04T13:11:36.256Z,14.10
2019-02-04T13:14:44.575Z,10.50
2019-02-04T13:17:13.070Z,13.57
2019-02-04T13:19:41.482Z,10.77
2019-02-04T13:22:09.891Z,13.20
2019-02-04T13:24:38.322Z,12.17
2019-02-04T13:27:25.918Z,9.70
2019-02-04T13:29:54.531Z,12.50
2019-02-04T13:32:22.928Z,16.40
2019-02-04T13:34:51.324Z,12.47
2019-02-04T13:37:19.748Z,12.90
2019-02-04T13:39:48.177Z,13.03
2019-02-04T13:42:16.592Z,14.17
2019-02-04T13:44:46.847Z,14.43
2019-02-04T13:47:15.254Z,15.17
2019-02-04T13:50:23.600Z,17.10
2019-02-04T13:53:31.912Z,14.77
2019-02-04T13:56:00.362Z,18.77
2019-02-04T13:58:49.813Z,20.03
2019-02-04T14:03:52.689Z,21.20
2019-02-04T14:06:21.146Z,20.23
2019-02-04T14:08:51.265Z,28.13
2019-02-04T14:11:39.095Z,37.13
2019-02-04T14:14:07.496Z,19.23
2019-02-04T14:16:43.281Z,16.50
2019-02-04T14:19:11.760Z,16.73
2019-02-04T14:21:40.171Z,15.60
2019-02-04T14:24:08.563Z,17.90
2019-02-04T14:26:36.988Z,15.20
2019-02-04T14:29:05.529Z,14.57
2019-02-04T14:31:35.349Z,16.73
2019-02-04T14:45:43.262Z,17.07
2019-02-04T14:48:50.253Z,18.87
2019-02-04T14:51:57.240Z,16.13
2019-02-04T14:54:38.306Z,21.77
2019-02-04T14:57:45.294Z,18.77
2019-02-04T15:00:55.303Z,16.63
2019-02-04T15:04:02.676Z,17.97
2019-02-04T15:07:11.024Z,20.43
2019-02-04T15:10:18.031Z,17.50
2019-02-04T15:13:26.726Z,23.27
2019-02-04T15:16:33.719Z,19.30
2019-02-04T15:19:40.743Z,17.23
2019-02-04T15:22:47.824Z,20.87
2019-02-04T15:25:56.503Z,23.00
2019-02-04T15:29:04.880Z,22.53
2019-02-04T15:32:11.890Z,23.67
2019-02-04T15:35:18.882Z,20.23
2019-02-04T15:38:28.023Z,18.20
2019-02-04T15:41:35.018Z,30.63
2019-02-04T15:44:43.506Z,28.10
2019-02-04T15:47:51.876Z,24.37
2019-02-04T15:51:00.309Z,18.40
2019-02-04T15:53:28.709Z,22.03
2019-02-04T15:56:16.382Z,21.63
2019-02-04T15:58:44.782Z,21.70
2019-02-04T16:04:27.788Z,30.83
2019-02-04T16:06:56.262Z,23.83
2019-02-04T16:09:24.741Z,26.17
2019-02-04T16:12:12.515Z,35.83
2019-02-04T16:15:00.355Z,31.60
2019-02-04T16:20:44.625Z,22.97
2019-02-04T16:23:13.101Z,29.67
2019-02-04T16:25:41.502Z,38.20
2019-02-04T16:33:33.787Z,29.93
2019-02-04T16:36:02.194Z,29.53
2019-02-04T16:38:30.596Z,28.43
2019-02-04T16:41:00.748Z,26.27
2019-02-04T16:43:29.158Z,29.37
2019-02-04T16:51:25.716Z,27.27
2019-02-04T16:53:54.165Z,32.33
2019-02-04T16:56:22.565Z,36.20
2019-02-04T16:59:03.695Z,29.77
2019-02-04T17:01:51.358Z,25.83
2019-02-04T17:04:19.826Z,24.93
2019-02-04T17:06:48.235Z,27.77
2019-02-04T17:09:16.647Z,30.83
2019-02-04T17:11:45.083Z,29.40
2019-02-04T17:14:15.201Z,27.93
2019-02-04T17:16:43.622Z,29.80
2019-02-04T17:22:05.720Z,31.03
2019-02-04T17:24:35.925Z,26.53
2019-02-04T17:27:23.679Z,24.23
2019-02-04T17:29:52.291Z,24.40
2019-02-04T17:32:20.693Z,22.60
2019-02-04T17:34:49.096Z,24.03
2019-02-04T17:37:17.557Z,26.10
2019-02-04T17:39:45.961Z,24.87
2019-02-04T17:42:33.628Z,27.67
2019-02-04T17:45:02.028Z,24.97
2019-02-04T17:47:32.142Z,28.40
2019-02-04T17:52:37.211Z,26.37
2019-02-04T17:55:45.520Z,25.03
2019-02-04T17:58:14.051Z,24.83
2019-02-04T18:01:01.783Z,27.97
2019-02-04T18:03:30.165Z,27.27
2019-02-04T18:05:58.806Z,26.03
2019-02-04T18:08:46.649Z,26.87
2019-02-04T18:11:15.052Z,25.77
2019-02-04T18:13:43.467Z,23.07
2019-02-04T18:16:13.630Z,24.57
2019-02-04T18:18:42.133Z,27.03
2019-02-04T18:29:32.198Z,26.17
2019-02-04T18:34:36.429Z,26.63
2019-02-04T18:37:44.865Z,36.97
2019-02-04T18:40:53.177Z,36.30
2019-02-04T18:45:56.096Z,42.67
2019-02-04T18:51:00.252Z,31.07
2019-02-04T18:53:28.734Z,28.33
2019-02-04T18:56:18.234Z,43.20
2019-02-04T19:01:21.152Z,37.00
2019-02-04T19:04:02.048Z,41.47
2019-02-04T19:06:30.640Z,40.43
2019-02-04T19:08:59.054Z,32.57
2019-02-04T19:11:27.585Z,39.63
2019-02-04T19:13:56.026Z,34.47
2019-02-04T19:19:11.909Z,42.73
2019-02-04T19:21:59.629Z,68.83
2019-02-04T19:27:21.054Z,69.17
2019-02-04T19:29:49.506Z,56.33
2019-02-04T19:32:17.911Z,43.90
2019-02-04T19:34:46.311Z,38.13
2019-02-04T19:39:49.121Z,40.07
2019-02-04T19:44:51.506Z,27.67
2019-02-04T19:47:19.938Z,30.70
2019-02-04T19:49:48.343Z,43.77
2019-02-04T19:52:16.830Z,29.83
2019-02-04T19:54:46.985Z,32.13
2019-02-04T19:57:15.399Z,34.13
2019-02-04T19:59:43.800Z,33.63
2019-02-04T20:02:52.157Z,34.17
2019-02-04T20:05:33.185Z,27.90
2019-02-04T20:13:30.435Z,30.23
2019-02-04T20:15:58.836Z,35.20
2019-02-04T20:18:46.460Z,39.47
2019-02-04T20:21:54.791Z,44.90
2019-02-04T20:24:32.880Z,35.53
2019-02-04T20:26:53.357Z,38.10
2019-02-04T20:29:24.612Z,36.77
2019-02-04T20:31:53.050Z,45.53
2019-02-04T20:34:21.456Z,41.83
2019-02-04T20:36:49.861Z,44.30
2019-02-04T20:41:52.596Z,42.80
2019-02-04T20:46:55.092Z,35.87
2019-02-04T20:51:57.488Z,36.47
2019-02-04T20:54:25.915Z,36.17
2019-02-04T20:56:54.324Z,41.27
2019-02-04T20:59:22.728Z,40.20
2019-02-04T21:04:25.716Z,36.23
2019-02-04T21:07:06.110Z,36.50
2019-02-04T21:09:34.506Z,37.10
2019-02-04T21:12:02.911Z,37.03
2019-02-04T21:14:31.348Z,38.13
2019-02-04T21:16:59.752Z,37.63
2019-02-04T21:19:28.144Z,38.67
2019-02-04T21:21:56.574Z,41.50
2019-02-04T21:24:26.738Z,39.27
2019-02-04T21:26:55.287Z,40.63
2019-02-04T21:29:23.714Z,42.00
2019-02-04T21:31:52.122Z,38.77
2019-02-04T21:34:20.532Z,40.67
2019-02-04T21:36:48.953Z,41.43
2019-02-04T21:39:19.085Z,71.80
2019-02-04T21:41:47.485Z,49.53
2019-02-04T21:46:49.393Z,52.30
2019-02-04T21:52:11.640Z,137.90
2019-02-04T21:57:14.514Z,63.13
2019-02-04T22:02:17.540Z,49.83
2019-02-04T22:07:19.957Z,63.37
2019-02-04T22:09:48.356Z,52.93
2019-02-04T22:12:18.508Z,60.63
2019-02-04T22:14:46.910Z,48.73
2019-02-04T22:17:17.030Z,85.07
2019-02-04T22:22:19.136Z,47.97
2019-02-04T22:24:47.611Z,133.60
2019-02-04T22:27:16.021Z,123.17
2019-02-04T22:29:44.431Z,48.77
2019-02-04T22:32:12.859Z,53.43
2019-02-04T22:34:45.617Z,216.67
2019-02-04T22:37:13.123Z,203.73
2019-02-04T22:39:41.555Z,169.43
2019-02-04T22:42:09.959Z,230.03
2019-02-04T22:44:38.365Z,140.73
2019-02-04T22:47:06.823Z,250.33
2019-02-04T22:49:36.942Z,59.70
2019-02-04T22:52:45.459Z,376.77
2019-02-04T22:55:55.415Z,188.23
2019-02-04T22:58:23.837Z,172.57
2019-02-04T23:01:32.214Z,60.23
2019-02-04T23:04:00.643Z,119.83
2019-02-04T23:06:29.045Z,91.37
2019-02-04T23:08:57.462Z,80.97
2019-02-04T23:12:05.981Z,180.13
2019-02-04T23:14:34.385Z,133.00
2019-02-04T23:17:44.445Z,41.77
2019-02-04T23:20:52.776Z,112.17
2019-02-04T23:25:55.500Z,222.57
2019-02-04T23:28:23.945Z,239.53
2019-02-04T23:30:52.350Z,84.40
2019-02-04T23:33:20.767Z,253.27
2019-02-04T23:38:22.763Z,284.40
2019-02-04T23:40:51.165Z,197.83
2019-02-04T23:45:53.202Z,69.40
2019-02-04T23:48:21.628Z,55.13
2019-02-04T23:50:50.021Z,185.47
2019-02-04T23:53:18.492Z,70.33
2019-02-04T23:59:00.354Z,139.30
